上海/浦東 の空港の天気 - METARとTAF

上海浦東国際空港 ( ZSPD / PVG ) - 中国 上海市
飛行場実況気象(Metar)
観測時間01/23 09:00 CST (01/23 01:00 UTC)
風向・風速北北西 5m/s
視程4000m
天気現象もや
全天の8割程度の雲 雲底高度 240m
全天を覆う雲 雲底高度 1010m
気温8℃
湿度93%
気圧1018hPa
METARZSPD 230100Z 34005MPS 4000 BR BKN008 OVC033 08/07 Q1018 NOSIG
過去の天気等 Google飛行場航空写真 Wunderground天気予報

過去48時間のMETAR

飛行場予報(TAF)
発表時間: 1/23 05:05 CST (1/22 21:05 UTC)
予報対象時間: 23日8時 CST ~ 24日8時 CST
風向・風速北 4m/s
視程6000m
天気現象弱い雨
全天の8割程度の雲 雲底高度 340m
全天を覆う雲 雲底高度 790m
23日11時 CST ~ 23日12時 CST に徐々に
天気現象運行に影響にある天気現象が終了
全天の8割程度の雲 雲底高度 460m
全天を覆う雲 雲底高度 1220m
TAF ZSPD 222105Z 2300/2324 35004MPS 6000 -RA BKN011 OVC026 TX09/2306Z TN05/2321Z
BECMG 2303/2304 NSW BKN015 OVC040